sensor_id;sensor_type;location;lat;lon;timestamp;P1;durP1;ratioP1;P2;durP2;ratioP2
19414;SDS011;9843;48.882;12.592;2023-09-18T00:01:17;7.83;;;6.70;;
19414;SDS011;9843;48.882;12.592;2023-09-18T00:03:45;9.50;;;6.70;;
19414;SDS011;9843;48.882;12.592;2023-09-18T00:06:13;10.13;;;8.50;;
19414;SDS011;9843;48.882;12.592;2023-09-18T00:08:40;8.07;;;7.27;;
19414;SDS011;9843;48.882;12.592;2023-09-18T00:11:07;9.33;;;8.33;;
19414;SDS011;9843;48.882;12.592;2023-09-18T00:13:35;9.27;;;8.27;;
19414;SDS011;9843;48.882;12.592;2023-09-18T00:16:02;7.10;;;6.40;;
19414;SDS011;9843;48.882;12.592;2023-09-18T00:18:29;9.70;;;8.27;;
19414;SDS011;9843;48.882;12.592;2023-09-18T00:20:56;8.00;;;7.23;;
19414;SDS011;9843;48.882;12.592;2023-09-18T00:23:24;8.47;;;7.17;;
19414;SDS011;9843;48.882;12.592;2023-09-18T00:25:51;7.20;;;6.47;;
19414;SDS011;9843;48.882;12.592;2023-09-18T00:28:18;17.93;;;7.50;;
19414;SDS011;9843;48.882;12.592;2023-09-18T00:30:47;8.50;;;7.70;;
19414;SDS011;9843;48.882;12.592;2023-09-18T00:33:14;8.70;;;6.80;;
19414;SDS011;9843;48.882;12.592;2023-09-18T00:35:44;7.90;;;7.07;;
19414;SDS011;9843;48.882;12.592;2023-09-18T00:38:12;7.50;;;6.73;;
19414;SDS011;9843;48.882;12.592;2023-09-18T00:40:40;11.73;;;7.53;;
19414;SDS011;9843;48.882;12.592;2023-09-18T00:43:07;7.97;;;7.27;;
19414;SDS011;9843;48.882;12.592;2023-09-18T00:45:35;24.67;;;7.63;;
19414;SDS011;9843;48.882;12.592;2023-09-18T00:48:05;8.50;;;6.67;;
19414;SDS011;9843;48.882;12.592;2023-09-18T00:50:32;12.97;;;6.93;;
19414;SDS011;9843;48.882;12.592;2023-09-18T00:52:59;7.10;;;6.23;;
19414;SDS011;9843;48.882;12.592;2023-09-18T00:55:26;9.50;;;7.63;;
19414;SDS011;9843;48.882;12.592;2023-09-18T00:57:56;6.63;;;5.97;;
19414;SDS011;9843;48.882;12.592;2023-09-18T01:00:23;7.27;;;6.20;;
19414;SDS011;9843;48.882;12.592;2023-09-18T01:02:50;7.80;;;7.10;;
19414;SDS011;9843;48.882;12.592;2023-09-18T01:05:17;9.00;;;8.17;;
19414;SDS011;9843;48.882;12.592;2023-09-18T01:07:45;6.93;;;6.23;;
19414;SDS011;9843;48.882;12.592;2023-09-18T01:10:12;6.33;;;5.73;;
19414;SDS011;9843;48.882;12.592;2023-09-18T01:12:42;6.60;;;6.00;;
19414;SDS011;9843;48.882;12.592;2023-09-18T01:15:14;7.17;;;6.47;;
19414;SDS011;9843;48.882;12.592;2023-09-18T01:17:43;7.97;;;7.17;;
19414;SDS011;9843;48.882;12.592;2023-09-18T01:20:11;13.00;;;7.67;;
19414;SDS011;9843;48.882;12.592;2023-09-18T01:22:40;7.73;;;6.20;;
19414;SDS011;9843;48.882;12.592;2023-09-18T01:25:08;7.60;;;6.90;;
19414;SDS011;9843;48.882;12.592;2023-09-18T01:27:35;7.63;;;6.70;;
19414;SDS011;9843;48.882;12.592;2023-09-18T01:30:03;8.23;;;7.13;;
19414;SDS011;9843;48.882;12.592;2023-09-18T01:32:30;7.67;;;7.07;;
19414;SDS011;9843;48.882;12.592;2023-09-18T01:34:59;7.33;;;6.63;;
19414;SDS011;9843;48.882;12.592;2023-09-18T01:37:27;6.37;;;5.80;;
19414;SDS011;9843;48.882;12.592;2023-09-18T01:39:56;9.00;;;8.17;;
19414;SDS011;9843;48.882;12.592;2023-09-18T01:42:24;9.07;;;7.03;;
19414;SDS011;9843;48.882;12.592;2023-09-18T01:44:51;7.77;;;6.37;;
19414;SDS011;9843;48.882;12.592;2023-09-18T01:47:20;8.47;;;7.67;;
19414;SDS011;9843;48.882;12.592;2023-09-18T01:49:48;13.13;;;6.23;;
19414;SDS011;9843;48.882;12.592;2023-09-18T01:52:15;7.23;;;6.40;;
19414;SDS011;9843;48.882;12.592;2023-09-18T01:54:43;8.97;;;7.07;;
19414;SDS011;9843;48.882;12.592;2023-09-18T01:57:11;7.07;;;6.37;;
19414;SDS011;9843;48.882;12.592;2023-09-18T01:59:38;6.03;;;5.43;;
19414;SDS011;9843;48.882;12.592;2023-09-18T02:02:07;6.97;;;6.33;;
19414;SDS011;9843;48.882;12.592;2023-09-18T02:04:34;8.97;;;8.17;;
19414;SDS011;9843;48.882;12.592;2023-09-18T02:07:02;9.13;;;6.43;;
19414;SDS011;9843;48.882;12.592;2023-09-18T02:09:29;9.00;;;6.47;;
19414;SDS011;9843;48.882;12.592;2023-09-18T02:11:56;9.20;;;7.37;;
19414;SDS011;9843;48.882;12.592;2023-09-18T02:14:24;7.63;;;6.83;;
19414;SDS011;9843;48.882;12.592;2023-09-18T02:16:51;12.67;;;7.60;;
19414;SDS011;9843;48.882;12.592;2023-09-18T02:19:19;8.90;;;6.50;;
19414;SDS011;9843;48.882;12.592;2023-09-18T02:21:46;11.20;;;8.37;;
19414;SDS011;9843;48.882;12.592;2023-09-18T02:24:13;8.00;;;7.30;;
19414;SDS011;9843;48.882;12.592;2023-09-18T02:26:40;8.90;;;6.43;;
19414;SDS011;9843;48.882;12.592;2023-09-18T02:29:08;21.57;;;8.30;;
19414;SDS011;9843;48.882;12.592;2023-09-18T02:31:37;7.93;;;7.23;;
19414;SDS011;9843;48.882;12.592;2023-09-18T02:34:04;7.40;;;6.70;;
19414;SDS011;9843;48.882;12.592;2023-09-18T02:36:32;6.93;;;6.33;;
19414;SDS011;9843;48.882;12.592;2023-09-18T02:38:59;6.90;;;5.83;;
19414;SDS011;9843;48.882;12.592;2023-09-18T02:41:26;8.10;;;7.30;;
19414;SDS011;9843;48.882;12.592;2023-09-18T02:43:53;7.43;;;6.70;;
19414;SDS011;9843;48.882;12.592;2023-09-18T02:46:20;6.40;;;5.80;;
19414;SDS011;9843;48.882;12.592;2023-09-18T02:48:49;7.93;;;7.13;;
19414;SDS011;9843;48.882;12.592;2023-09-18T02:51:16;7.40;;;6.50;;
19414;SDS011;9843;48.882;12.592;2023-09-18T02:53:43;10.27;;;6.13;;
19414;SDS011;9843;48.882;12.592;2023-09-18T02:56:10;6.87;;;6.10;;
19414;SDS011;9843;48.882;12.592;2023-09-18T02:58:37;7.80;;;7.10;;
19414;SDS011;9843;48.882;12.592;2023-09-18T03:01:06;8.00;;;7.07;;
19414;SDS011;9843;48.882;12.592;2023-09-18T03:03:34;7.57;;;6.87;;
19414;SDS011;9843;48.882;12.592;2023-09-18T03:06:02;7.23;;;6.63;;
19414;SDS011;9843;48.882;12.592;2023-09-18T03:08:29;7.30;;;6.63;;
19414;SDS011;9843;48.882;12.592;2023-09-18T03:10:56;7.87;;;6.30;;
19414;SDS011;9843;48.882;12.592;2023-09-18T03:13:25;10.40;;;6.43;;
19414;SDS011;9843;48.882;12.592;2023-09-18T03:15:52;6.80;;;6.20;;
19414;SDS011;9843;48.882;12.592;2023-09-18T03:18:19;7.90;;;7.07;;
19414;SDS011;9843;48.882;12.592;2023-09-18T03:20:46;7.10;;;6.10;;
19414;SDS011;9843;48.882;12.592;2023-09-18T03:23:15;7.03;;;6.37;;
19414;SDS011;9843;48.882;12.592;2023-09-18T03:25:42;6.47;;;5.77;;
19414;SDS011;9843;48.882;12.592;2023-09-18T03:28:09;7.87;;;7.07;;
19414;SDS011;9843;48.882;12.592;2023-09-18T03:30:36;9.27;;;7.23;;
19414;SDS011;9843;48.882;12.592;2023-09-18T03:33:03;6.60;;;6.00;;
19414;SDS011;9843;48.882;12.592;2023-09-18T03:35:31;8.97;;;7.70;;
19414;SDS011;9843;48.882;12.592;2023-09-18T03:37:58;8.30;;;6.60;;
19414;SDS011;9843;48.882;12.592;2023-09-18T03:40:27;8.07;;;5.63;;
19414;SDS011;9843;48.882;12.592;2023-09-18T03:42:54;9.47;;;6.20;;
19414;SDS011;9843;48.882;12.592;2023-09-18T03:45:21;8.83;;;6.73;;
19414;SDS011;9843;48.882;12.592;2023-09-18T03:47:48;7.17;;;6.50;;
19414;SDS011;9843;48.882;12.592;2023-09-18T03:50:16;12.23;;;7.07;;
19414;SDS011;9843;48.882;12.592;2023-09-18T03:52:43;9.10;;;6.47;;
19414;SDS011;9843;48.882;12.592;2023-09-18T03:55:10;8.53;;;7.60;;
19414;SDS011;9843;48.882;12.592;2023-09-18T03:57:42;21.07;;;7.47;;
19414;SDS011;9843;48.882;12.592;2023-09-18T04:00:11;9.00;;;6.23;;
19414;SDS011;9843;48.882;12.592;2023-09-18T04:02:38;7.97;;;6.93;;
19414;SDS011;9843;48.882;12.592;2023-09-18T04:05:05;8.37;;;6.50;;
19414;SDS011;9843;48.882;12.592;2023-09-18T04:07:33;7.90;;;5.77;;
19414;SDS011;9843;48.882;12.592;2023-09-18T04:10:00;6.57;;;5.97;;
19414;SDS011;9843;48.882;12.592;2023-09-18T04:12:27;5.87;;;5.27;;
19414;SDS011;9843;48.882;12.592;2023-09-18T04:14:56;14.07;;;6.80;;
19414;SDS011;9843;48.882;12.592;2023-09-18T04:17:23;7.27;;;6.00;;
19414;SDS011;9843;48.882;12.592;2023-09-18T04:19:50;8.33;;;7.23;;
19414;SDS011;9843;48.882;12.592;2023-09-18T04:22:17;8.40;;;7.23;;
19414;SDS011;9843;48.882;12.592;2023-09-18T04:24:44;7.47;;;6.37;;
19414;SDS011;9843;48.882;12.592;2023-09-18T04:27:11;6.67;;;6.03;;
19414;SDS011;9843;48.882;12.592;2023-09-18T04:29:38;7.90;;;6.83;;
19414;SDS011;9843;48.882;12.592;2023-09-18T04:32:06;9.67;;;7.60;;
19414;SDS011;9843;48.882;12.592;2023-09-18T04:34:33;6.67;;;6.00;;
19414;SDS011;9843;48.882;12.592;2023-09-18T04:37:00;8.23;;;7.23;;
19414;SDS011;9843;48.882;12.592;2023-09-18T04:39:28;10.17;;;8.37;;
19414;SDS011;9843;48.882;12.592;2023-09-18T04:41:58;8.13;;;7.33;;
19414;SDS011;9843;48.882;12.592;2023-09-18T04:44:26;7.70;;;7.00;;
19414;SDS011;9843;48.882;12.592;2023-09-18T04:46:53;8.00;;;7.20;;
19414;SDS011;9843;48.882;12.592;2023-09-18T04:49:22;11.93;;;6.87;;
19414;SDS011;9843;48.882;12.592;2023-09-18T04:51:49;12.80;;;7.90;;
19414;SDS011;9843;48.882;12.592;2023-09-18T04:54:16;8.73;;;7.53;;
19414;SDS011;9843;48.882;12.592;2023-09-18T04:56:44;7.27;;;6.57;;
19414;SDS011;9843;48.882;12.592;2023-09-18T04:59:11;9.57;;;7.83;;
19414;SDS011;9843;48.882;12.592;2023-09-18T05:01:39;9.43;;;7.03;;
19414;SDS011;9843;48.882;12.592;2023-09-18T05:04:07;12.97;;;7.63;;
19414;SDS011;9843;48.882;12.592;2023-09-18T05:06:35;8.87;;;7.97;;
19414;SDS011;9843;48.882;12.592;2023-09-18T05:09:03;6.97;;;6.37;;
19414;SDS011;9843;48.882;12.592;2023-09-18T05:11:31;8.23;;;7.43;;
19414;SDS011;9843;48.882;12.592;2023-09-18T05:13:59;9.70;;;8.77;;
19414;SDS011;9843;48.882;12.592;2023-09-18T05:16:26;8.03;;;7.23;;
19414;SDS011;9843;48.882;12.592;2023-09-18T05:18:53;9.60;;;7.70;;
19414;SDS011;9843;48.882;12.592;2023-09-18T05:21:21;6.97;;;6.13;;
19414;SDS011;9843;48.882;12.592;2023-09-18T05:23:51;8.83;;;7.60;;
19414;SDS011;9843;48.882;12.592;2023-09-18T05:26:18;8.43;;;6.80;;
19414;SDS011;9843;48.882;12.592;2023-09-18T05:28:48;8.83;;;7.87;;
19414;SDS011;9843;48.882;12.592;2023-09-18T05:31:16;7.93;;;7.13;;
19414;SDS011;9843;48.882;12.592;2023-09-18T05:33:43;10.80;;;7.27;;
19414;SDS011;9843;48.882;12.592;2023-09-18T05:36:10;9.13;;;8.27;;
19414;SDS011;9843;48.882;12.592;2023-09-18T05:38:39;8.37;;;7.57;;
19414;SDS011;9843;48.882;12.592;2023-09-18T05:41:07;8.60;;;7.20;;
19414;SDS011;9843;48.882;12.592;2023-09-18T05:43:34;9.83;;;8.87;;
19414;SDS011;9843;48.882;12.592;2023-09-18T05:46:01;12.23;;;7.87;;
19414;SDS011;9843;48.882;12.592;2023-09-18T05:48:29;9.77;;;8.27;;
19414;SDS011;9843;48.882;12.592;2023-09-18T05:50:56;8.67;;;7.67;;
19414;SDS011;9843;48.882;12.592;2023-09-18T05:53:23;11.53;;;8.07;;
19414;SDS011;9843;48.882;12.592;2023-09-18T05:55:50;9.60;;;7.93;;
19414;SDS011;9843;48.882;12.592;2023-09-18T05:58:19;13.47;;;7.50;;
19414;SDS011;9843;48.882;12.592;2023-09-18T06:00:49;11.70;;;6.87;;
19414;SDS011;9843;48.882;12.592;2023-09-18T06:03:16;8.93;;;7.93;;
19414;SDS011;9843;48.882;12.592;2023-09-18T06:05:45;13.10;;;6.93;;
19414;SDS011;9843;48.882;12.592;2023-09-18T06:08:15;9.33;;;7.53;;
19414;SDS011;9843;48.882;12.592;2023-09-18T06:10:42;9.23;;;7.70;;
19414;SDS011;9843;48.882;12.592;2023-09-18T06:13:09;6.87;;;6.27;;
19414;SDS011;9843;48.882;12.592;2023-09-18T06:15:37;8.97;;;6.47;;
19414;SDS011;9843;48.882;12.592;2023-09-18T06:18:04;9.60;;;5.90;;
19414;SDS011;9843;48.882;12.592;2023-09-18T06:20:32;6.90;;;6.20;;
19414;SDS011;9843;48.882;12.592;2023-09-18T06:22:59;8.33;;;5.67;;
19414;SDS011;9843;48.882;12.592;2023-09-18T06:25:28;12.13;;;4.70;;
19414;SDS011;9843;48.882;12.592;2023-09-18T06:27:56;4.93;;;4.50;;
19414;SDS011;9843;48.882;12.592;2023-09-18T06:30:25;7.77;;;5.10;;
19414;SDS011;9843;48.882;12.592;2023-09-18T06:32:54;5.73;;;4.30;;
19414;SDS011;9843;48.882;12.592;2023-09-18T06:35:21;5.60;;;4.90;;
19414;SDS011;9843;48.882;12.592;2023-09-18T06:37:48;7.43;;;4.47;;
19414;SDS011;9843;48.882;12.592;2023-09-18T06:40:15;4.93;;;4.23;;
19414;SDS011;9843;48.882;12.592;2023-09-18T06:42:42;5.83;;;4.63;;
19414;SDS011;9843;48.882;12.592;2023-09-18T06:45:09;6.30;;;5.20;;
19414;SDS011;9843;48.882;12.592;2023-09-18T06:47:37;5.10;;;4.60;;
19414;SDS011;9843;48.882;12.592;2023-09-18T06:50:06;6.33;;;5.43;;
19414;SDS011;9843;48.882;12.592;2023-09-18T06:52:34;5.33;;;4.57;;
19414;SDS011;9843;48.882;12.592;2023-09-18T06:55:01;7.43;;;5.70;;
19414;SDS011;9843;48.882;12.592;2023-09-18T06:57:28;5.33;;;4.77;;
19414;SDS011;9843;48.882;12.592;2023-09-18T06:59:55;5.17;;;4.37;;
19414;SDS011;9843;48.882;12.592;2023-09-18T07:02:22;5.73;;;4.00;;
19414;SDS011;9843;48.882;12.592;2023-09-18T07:04:50;7.37;;;3.97;;
19414;SDS011;9843;48.882;12.592;2023-09-18T07:07:19;5.13;;;4.60;;
19414;SDS011;9843;48.882;12.592;2023-09-18T07:09:50;4.90;;;4.40;;
19414;SDS011;9843;48.882;12.592;2023-09-18T07:12:17;7.53;;;4.60;;
19414;SDS011;9843;48.882;12.592;2023-09-18T07:14:44;8.47;;;5.93;;
19414;SDS011;9843;48.882;12.592;2023-09-18T07:17:12;4.83;;;4.17;;
19414;SDS011;9843;48.882;12.592;2023-09-18T07:19:40;4.07;;;3.35;;
19414;SDS011;9843;48.882;12.592;2023-09-18T07:22:07;3.67;;;3.30;;
19414;SDS011;9843;48.882;12.592;2023-09-18T07:24:36;2.92;;;2.63;;
19414;SDS011;9843;48.882;12.592;2023-09-18T07:27:06;5.70;;;2.97;;
19414;SDS011;9843;48.882;12.592;2023-09-18T07:29:33;4.22;;;2.85;;
19414;SDS011;9843;48.882;12.592;2023-09-18T07:32:00;5.45;;;3.45;;
19414;SDS011;9843;48.882;12.592;2023-09-18T07:34:27;3.35;;;3.05;;
19414;SDS011;9843;48.882;12.592;2023-09-18T07:36:54;4.47;;;2.92;;
19414;SDS011;9843;48.882;12.592;2023-09-18T07:39:21;4.47;;;3.13;;
19414;SDS011;9843;48.882;12.592;2023-09-18T07:41:50;4.10;;;3.60;;
19414;SDS011;9843;48.882;12.592;2023-09-18T07:44:18;4.35;;;3.17;;
19414;SDS011;9843;48.882;12.592;2023-09-18T07:46:45;3.22;;;2.92;;
19414;SDS011;9843;48.882;12.592;2023-09-18T07:49:12;3.53;;;3.22;;
19414;SDS011;9843;48.882;12.592;2023-09-18T07:51:40;5.03;;;3.60;;
19414;SDS011;9843;48.882;12.592;2023-09-18T07:54:07;4.93;;;3.83;;
19414;SDS011;9843;48.882;12.592;2023-09-18T07:56:34;4.10;;;3.70;;
19414;SDS011;9843;48.882;12.592;2023-09-18T07:59:02;5.22;;;3.45;;
19414;SDS011;9843;48.882;12.592;2023-09-18T08:01:30;4.22;;;2.85;;
19414;SDS011;9843;48.882;12.592;2023-09-18T08:03:57;4.90;;;3.05;;
19414;SDS011;9843;48.882;12.592;2023-09-18T08:06:25;6.63;;;3.35;;
19414;SDS011;9843;48.882;12.592;2023-09-18T08:08:53;3.78;;;3.28;;
19414;SDS011;9843;48.882;12.592;2023-09-18T08:11:20;9.65;;;3.90;;
19414;SDS011;9843;48.882;12.592;2023-09-18T08:13:47;5.53;;;4.13;;
19414;SDS011;9843;48.882;12.592;2023-09-18T08:16:15;4.22;;;3.53;;
19414;SDS011;9843;48.882;12.592;2023-09-18T08:18:43;3.80;;;3.40;;
19414;SDS011;9843;48.882;12.592;2023-09-18T08:21:10;3.60;;;3.30;;
19414;SDS011;9843;48.882;12.592;2023-09-18T08:23:38;4.40;;;4.00;;
19414;SDS011;9843;48.882;12.592;2023-09-18T08:26:05;3.42;;;2.78;;
19414;SDS011;9843;48.882;12.592;2023-09-18T08:28:33;3.22;;;2.75;;
19414;SDS011;9843;48.882;12.592;2023-09-18T08:31:03;6.63;;;2.88;;
19414;SDS011;9843;48.882;12.592;2023-09-18T08:33:32;6.35;;;3.25;;
19414;SDS011;9843;48.882;12.592;2023-09-18T08:35:59;3.35;;;2.63;;
19414;SDS011;9843;48.882;12.592;2023-09-18T08:38:26;5.25;;;2.83;;
19414;SDS011;9843;48.882;12.592;2023-09-18T08:40:53;5.95;;;3.67;;
19414;SDS011;9843;48.882;12.592;2023-09-18T08:43:21;3.10;;;2.70;;
19414;SDS011;9843;48.882;12.592;2023-09-18T08:45:50;4.95;;;2.08;;
19414;SDS011;9843;48.882;12.592;2023-09-18T08:48:18;4.82;;;2.70;;
19414;SDS011;9843;48.882;12.592;2023-09-18T08:50:47;3.47;;;2.50;;
19414;SDS011;9843;48.882;12.592;2023-09-18T08:53:14;4.63;;;2.28;;
19414;SDS011;9843;48.882;12.592;2023-09-18T08:55:41;3.08;;;2.35;;
19414;SDS011;9843;48.882;12.592;2023-09-18T08:58:08;2.40;;;1.77;;
19414;SDS011;9843;48.882;12.592;2023-09-18T09:00:36;4.20;;;2.17;;
19414;SDS011;9843;48.882;12.592;2023-09-18T09:03:03;6.50;;;2.63;;
19414;SDS011;9843;48.882;12.592;2023-09-18T09:05:30;4.07;;;2.72;;
19414;SDS011;9843;48.882;12.592;2023-09-18T09:07:59;3.85;;;2.33;;
19414;SDS011;9843;48.882;12.592;2023-09-18T09:10:26;8.40;;;2.35;;
19414;SDS011;9843;48.882;12.592;2023-09-18T09:12:55;2.45;;;2.15;;
19414;SDS011;9843;48.882;12.592;2023-09-18T09:15:26;4.43;;;2.65;;
19414;SDS011;9843;48.882;12.592;2023-09-18T09:18:02;2.45;;;1.50;;
19414;SDS011;9843;48.882;12.592;2023-09-18T09:20:29;4.50;;;3.40;;
19414;SDS011;9843;48.882;12.592;2023-09-18T09:23:01;2.60;;;2.25;;
19414;SDS011;9843;48.882;12.592;2023-09-18T09:25:28;4.47;;;2.95;;
19414;SDS011;9843;48.882;12.592;2023-09-18T09:27:57;5.85;;;3.90;;
19414;SDS011;9843;48.882;12.592;2023-09-18T09:30:25;4.57;;;2.55;;
19414;SDS011;9843;48.882;12.592;2023-09-18T09:32:53;3.53;;;2.75;;
19414;SDS011;9843;48.882;12.592;2023-09-18T09:35:21;2.45;;;2.00;;
19414;SDS011;9843;48.882;12.592;2023-09-18T09:37:47;2.30;;;2.08;;
19414;SDS011;9843;48.882;12.592;2023-09-18T09:40:17;3.45;;;3.10;;
19414;SDS011;9843;48.882;12.592;2023-09-18T09:42:45;3.33;;;2.53;;
19414;SDS011;9843;48.882;12.592;2023-09-18T09:45:13;3.55;;;2.15;;
19414;SDS011;9843;48.882;12.592;2023-09-18T09:47:41;2.30;;;2.10;;
19414;SDS011;9843;48.882;12.592;2023-09-18T09:50:08;6.38;;;2.03;;
19414;SDS011;9843;48.882;12.592;2023-09-18T09:52:36;2.72;;;1.33;;
19414;SDS011;9843;48.882;12.592;2023-09-18T09:55:18;3.13;;;2.28;;
19414;SDS011;9843;48.882;12.592;2023-09-18T09:57:49;3.05;;;2.65;;
19414;SDS011;9843;48.882;12.592;2023-09-18T10:00:16;5.15;;;3.80;;
19414;SDS011;9843;48.882;12.592;2023-09-18T10:02:59;8.15;;;2.17;;
19414;SDS011;9843;48.882;12.592;2023-09-18T10:05:28;3.08;;;1.95;;
19414;SDS011;9843;48.882;12.592;2023-09-18T10:07:57;3.00;;;2.03;;
19414;SDS011;9843;48.882;12.592;2023-09-18T10:10:32;5.80;;;2.58;;
19414;SDS011;9843;48.882;12.592;2023-09-18T10:13:00;4.35;;;1.70;;
19414;SDS011;9843;48.882;12.592;2023-09-18T10:15:31;2.10;;;1.33;;
19414;SDS011;9843;48.882;12.592;2023-09-18T10:18:03;3.70;;;2.03;;
19414;SDS011;9843;48.882;12.592;2023-09-18T10:20:33;2.08;;;1.80;;
19414;SDS011;9843;48.882;12.592;2023-09-18T10:23:09;2.67;;;1.95;;
19414;SDS011;9843;48.882;12.592;2023-09-18T10:25:40;1.80;;;1.38;;
19414;SDS011;9843;48.882;12.592;2023-09-18T10:28:07;3.38;;;1.88;;
19414;SDS011;9843;48.882;12.592;2023-09-18T10:30:37;2.70;;;1.55;;
19414;SDS011;9843;48.882;12.592;2023-09-18T10:33:04;2.80;;;1.40;;
19414;SDS011;9843;48.882;12.592;2023-09-18T10:35:32;3.22;;;1.38;;
19414;SDS011;9843;48.882;12.592;2023-09-18T10:38:01;4.68;;;1.80;;
19414;SDS011;9843;48.882;12.592;2023-09-18T10:40:29;2.28;;;1.85;;
19414;SDS011;9843;48.882;12.592;2023-09-18T10:42:58;5.35;;;2.22;;
19414;SDS011;9843;48.882;12.592;2023-09-18T10:45:26;4.68;;;1.77;;
19414;SDS011;9843;48.882;12.592;2023-09-18T10:47:53;4.00;;;2.45;;
19414;SDS011;9843;48.882;12.592;2023-09-18T10:50:24;3.42;;;2.40;;
19414;SDS011;9843;48.882;12.592;2023-09-18T10:52:52;7.20;;;2.28;;
19414;SDS011;9843;48.882;12.592;2023-09-18T10:55:20;2.92;;;2.30;;
19414;SDS011;9843;48.882;12.592;2023-09-18T10:57:49;2.67;;;2.00;;
19414;SDS011;9843;48.882;12.592;2023-09-18T11:00:18;5.68;;;3.63;;
19414;SDS011;9843;48.882;12.592;2023-09-18T11:02:48;3.70;;;2.25;;
19414;SDS011;9843;48.882;12.592;2023-09-18T11:05:25;6.20;;;2.35;;
19414;SDS011;9843;48.882;12.592;2023-09-18T11:10:36;3.70;;;2.60;;
19414;SDS011;9843;48.882;12.592;2023-09-18T11:13:05;5.53;;;3.15;;
19414;SDS011;9843;48.882;12.592;2023-09-18T11:15:34;6.63;;;3.33;;
19414;SDS011;9843;48.882;12.592;2023-09-18T11:18:01;3.05;;;2.10;;
19414;SDS011;9843;48.882;12.592;2023-09-18T11:20:29;5.65;;;3.60;;
19414;SDS011;9843;48.882;12.592;2023-09-18T11:22:57;4.28;;;2.38;;
19414;SDS011;9843;48.882;12.592;2023-09-18T11:25:31;6.90;;;2.72;;
19414;SDS011;9843;48.882;12.592;2023-09-18T11:28:02;4.25;;;3.00;;
19414;SDS011;9843;48.882;12.592;2023-09-18T11:30:31;11.00;;;2.58;;
19414;SDS011;9843;48.882;12.592;2023-09-18T11:33:02;4.55;;;3.50;;
19414;SDS011;9843;48.882;12.592;2023-09-18T11:35:29;5.57;;;2.30;;
19414;SDS011;9843;48.882;12.592;2023-09-18T11:38:06;3.85;;;2.65;;
19414;SDS011;9843;48.882;12.592;2023-09-18T11:40:34;3.92;;;2.78;;
19414;SDS011;9843;48.882;12.592;2023-09-18T11:45:48;3.20;;;2.45;;
19414;SDS011;9843;48.882;12.592;2023-09-18T11:48:18;8.73;;;2.95;;
19414;SDS011;9843;48.882;12.592;2023-09-18T11:50:45;5.35;;;2.58;;
19414;SDS011;9843;48.882;12.592;2023-09-18T11:53:15;8.73;;;2.92;;
19414;SDS011;9843;48.882;12.592;2023-09-18T11:55:44;6.80;;;3.33;;
19414;SDS011;9843;48.882;12.592;2023-09-18T11:58:11;5.68;;;2.88;;
19414;SDS011;9843;48.882;12.592;2023-09-18T12:00:39;3.72;;;3.25;;
19414;SDS011;9843;48.882;12.592;2023-09-18T12:03:15;4.30;;;2.92;;
19414;SDS011;9843;48.882;12.592;2023-09-18T12:05:50;7.88;;;2.35;;
19414;SDS011;9843;48.882;12.592;2023-09-18T12:08:17;4.90;;;2.60;;
19414;SDS011;9843;48.882;12.592;2023-09-18T12:10:44;7.07;;;2.47;;
19414;SDS011;9843;48.882;12.592;2023-09-18T12:13:14;13.50;;;4.20;;
19414;SDS011;9843;48.882;12.592;2023-09-18T12:15:41;9.68;;;3.22;;
19414;SDS011;9843;48.882;12.592;2023-09-18T12:18:09;7.57;;;3.13;;
19414;SDS011;9843;48.882;12.592;2023-09-18T12:20:38;3.90;;;2.63;;
19414;SDS011;9843;48.882;12.592;2023-09-18T12:23:08;4.03;;;2.28;;
19414;SDS011;9843;48.882;12.592;2023-09-18T12:25:35;8.77;;;3.75;;
19414;SDS011;9843;48.882;12.592;2023-09-18T12:28:02;6.22;;;2.65;;
19414;SDS011;9843;48.882;12.592;2023-09-18T12:30:29;4.47;;;3.08;;
19414;SDS011;9843;48.882;12.592;2023-09-18T12:32:57;7.03;;;3.22;;
19414;SDS011;9843;48.882;12.592;2023-09-18T12:35:25;14.98;;;3.00;;
19414;SDS011;9843;48.882;12.592;2023-09-18T12:37:54;9.43;;;3.80;;
19414;SDS011;9843;48.882;12.592;2023-09-18T12:40:24;8.35;;;2.97;;
19414;SDS011;9843;48.882;12.592;2023-09-18T12:42:51;13.07;;;2.80;;
19414;SDS011;9843;48.882;12.592;2023-09-18T12:45:19;13.80;;;6.47;;
19414;SDS011;9843;48.882;12.592;2023-09-18T12:47:46;14.25;;;4.32;;
19414;SDS011;9843;48.882;12.592;2023-09-18T12:50:14;6.38;;;2.75;;
19414;SDS011;9843;48.882;12.592;2023-09-18T12:52:41;9.55;;;4.03;;
19414;SDS011;9843;48.882;12.592;2023-09-18T12:55:08;10.57;;;3.75;;
19414;SDS011;9843;48.882;12.592;2023-09-18T12:57:39;6.25;;;4.00;;
19414;SDS011;9843;48.882;12.592;2023-09-18T13:00:09;8.60;;;3.33;;
19414;SDS011;9843;48.882;12.592;2023-09-18T13:02:37;10.48;;;3.42;;
19414;SDS011;9843;48.882;12.592;2023-09-18T13:05:06;11.27;;;4.55;;
19414;SDS011;9843;48.882;12.592;2023-09-18T13:07:42;12.55;;;5.38;;
19414;SDS011;9843;48.882;12.592;2023-09-18T13:10:10;6.95;;;3.05;;
19414;SDS011;9843;48.882;12.592;2023-09-18T13:12:40;13.77;;;3.95;;
19414;SDS011;9843;48.882;12.592;2023-09-18T13:15:08;7.35;;;3.10;;
19414;SDS011;9843;48.882;12.592;2023-09-18T13:17:41;7.03;;;2.38;;
19414;SDS011;9843;48.882;12.592;2023-09-18T13:20:11;12.55;;;2.60;;
19414;SDS011;9843;48.882;12.592;2023-09-18T13:22:39;11.70;;;3.15;;
19414;SDS011;9843;48.882;12.592;2023-09-18T13:25:06;6.32;;;2.70;;
19414;SDS011;9843;48.882;12.592;2023-09-18T13:27:34;11.80;;;2.83;;
19414;SDS011;9843;48.882;12.592;2023-09-18T13:30:02;9.25;;;2.75;;
19414;SDS011;9843;48.882;12.592;2023-09-18T13:32:32;15.57;;;3.10;;
19414;SDS011;9843;48.882;12.592;2023-09-18T13:34:59;6.72;;;3.75;;
19414;SDS011;9843;48.882;12.592;2023-09-18T13:37:26;10.27;;;4.07;;
19414;SDS011;9843;48.882;12.592;2023-09-18T13:39:54;11.32;;;3.53;;
19414;SDS011;9843;48.882;12.592;2023-09-18T13:42:21;9.48;;;2.50;;
19414;SDS011;9843;48.882;12.592;2023-09-18T13:44:49;13.02;;;3.15;;
19414;SDS011;9843;48.882;12.592;2023-09-18T13:47:18;5.65;;;2.10;;
19414;SDS011;9843;48.882;12.592;2023-09-18T13:49:45;10.80;;;1.95;;
19414;SDS011;9843;48.882;12.592;2023-09-18T13:52:12;2.80;;;1.60;;
19414;SDS011;9843;48.882;12.592;2023-09-18T13:54:41;10.63;;;2.08;;
19414;SDS011;9843;48.882;12.592;2023-09-18T13:57:08;3.42;;;2.47;;
19414;SDS011;9843;48.882;12.592;2023-09-18T13:59:35;3.03;;;1.50;;
19414;SDS011;9843;48.882;12.592;2023-09-18T14:02:03;7.25;;;2.80;;
19414;SDS011;9843;48.882;12.592;2023-09-18T14:04:31;1.83;;;1.00;;
19414;SDS011;9843;48.882;12.592;2023-09-18T14:06:58;1.65;;;1.13;;
19414;SDS011;9843;48.882;12.592;2023-09-18T14:09:26;9.48;;;1.75;;
19414;SDS011;9843;48.882;12.592;2023-09-18T14:11:53;4.57;;;1.50;;
19414;SDS011;9843;48.882;12.592;2023-09-18T14:14:21;1.58;;;1.00;;
19414;SDS011;9843;48.882;12.592;2023-09-18T14:16:49;5.53;;;1.10;;
19414;SDS011;9843;48.882;12.592;2023-09-18T14:19:16;1.20;;;0.70;;
19414;SDS011;9843;48.882;12.592;2023-09-18T14:21:44;4.38;;;0.90;;
19414;SDS011;9843;48.882;12.592;2023-09-18T14:24:14;5.40;;;0.75;;
19414;SDS011;9843;48.882;12.592;2023-09-18T14:26:43;3.55;;;1.05;;
19414;SDS011;9843;48.882;12.592;2023-09-18T14:29:10;2.83;;;2.00;;
19414;SDS011;9843;48.882;12.592;2023-09-18T14:31:38;3.63;;;0.90;;
19414;SDS011;9843;48.882;12.592;2023-09-18T14:34:05;2.75;;;1.00;;
19414;SDS011;9843;48.882;12.592;2023-09-18T14:36:33;5.87;;;1.07;;
19414;SDS011;9843;48.882;12.592;2023-09-18T14:39:02;2.00;;;1.43;;
19414;SDS011;9843;48.882;12.592;2023-09-18T14:41:29;2.70;;;1.20;;
19414;SDS011;9843;48.882;12.592;2023-09-18T14:43:57;3.47;;;2.07;;
19414;SDS011;9843;48.882;12.592;2023-09-18T14:46:24;2.47;;;1.10;;
19414;SDS011;9843;48.882;12.592;2023-09-18T14:48:51;6.40;;;1.30;;
19414;SDS011;9843;48.882;12.592;2023-09-18T14:51:18;4.47;;;1.47;;
19414;SDS011;9843;48.882;12.592;2023-09-18T14:53:45;3.37;;;1.63;;
19414;SDS011;9843;48.882;12.592;2023-09-18T14:56:14;8.67;;;2.90;;